EST,Max TemperatureF,Mean TemperatureF,Min TemperatureF,Max Dew PointF,MeanDew PointF,Min DewpointF,Max Humidity, Mean Humidity, Min Humidity, Max Sea Level PressureIn, Mean Sea Level PressureIn, Min Sea Level PressureIn, Max VisibilityMiles, Mean VisibilityMiles, Min VisibilityMiles, Max Wind SpeedMPH, Mean Wind SpeedMPH, Max Gust SpeedMPH,PrecipitationIn, CloudCover, Events, WindDirDegrees
2013-2-1,17,14,10,12,9,2,88,78,61,30.29,29.99,29.75,10,2,0,22,11,30,0.00,8,Fog-Snow,252
2013-2-2,19,14,9,18,10,0,93,82,64,30.27,30.04,29.90,10,3,0,12,8,21,0.00,8,Fog-Snow,199
2013-2-3,19,17,15,18,12,8,93,78,62,29.96,29.86,29.77,10,6,1,14,6,30,0.00,8,Snow,245
2013-2-4,21,18,14,19,13,7,93,80,68,30.04,29.92,29.82,9,3,1,16,8,22,0.00,8,Snow,234
2013-2-5,25,20,16,21,17,12,93,83,69,29.93,29.87,29.79,10,5,1,7,2,,0.01,8,Snow,226
2013-2-6,26,22,18,23,15,7,93,74,51,30.35,30.14,29.88,10,7,2,10,6,21,0.02,5,Rain-Snow,277
2013-2-7,41,28,16,23,17,8,71,61,43,30.33,30.19,29.96,10,10,10,7,2,16,0.03,4,,116
2013-2-8,34,26,18,32,23,12,93,84,69,30.18,29.89,29.74,10,4,0,21,9,30,0.09,8,Fog-Rain-Snow,283
2013-2-9,28,22,16,14,12,9,84,71,49,30.41,30.35,30.21,10,7,2,14,6,26,0.14,4,Snow,320
2013-2-10,45,31,17,21,14,9,74,51,27,30.36,30.18,29.90,10,10,10,8,3,,0.00,3,,128
2013-2-11,48,40,32,41,33,23,97,81,61,29.89,29.76,29.64,10,6,0,22,9,40,0.08,8,Fog-Rain-Snow,220
2013-2-12,32,28,25,25,22,20,86,74,66,30.06,29.98,29.88,10,9,2,16,11,26,0.00,6,Snow,256
2013-2-13,36,30,23,25,22,19,88,78,57,29.93,29.81,29.71,10,9,5,7,2,,0.00,4,,294
2013-2-14,36,28,21,34,28,19,93,87,72,29.91,29.84,29.78,10,5,2,21,7,25,0.10,7,Rain-Snow,195
2013-2-15,35,29,21,27,23,16,93,76,64,30.08,29.98,29.84,10,8,1,13,8,21,0.00,8,Snow,282
2013-2-16,25,22,18,18,11,4,80,64,44,30.07,30.00,29.94,10,8,1,9,5,16,0.00,7,Snow,332
2013-2-17,19,16,12,14,10,4,86,75,58,30.25,30.02,29.88,10,4,0,20,7,25,0.00,8,Snow,295
2013-2-18,42,24,8,26,12,3,80,60,46,30.29,30.13,29.84,10,10,10,9,5,17,0.07,0,,183
2013-2-19,44,30,17,36,23,10,93,79,49,29.89,29.73,29.59,10,4,0,23,13,34,0.31,8,Fog-Rain-Snow,231
2013-2-20,19,17,15,14,10,8,88,74,63,30.19,30.01,29.85,10,2,0,20,13,29,0.00,8,Fog-Snow,260
2013-2-21,19,16,14,14,11,9,86,78,71,30.39,30.23,30.09,10,4,1,12,7,23,0.00,7,Snow,302
2013-2-22,33,24,16,31,23,10,93,81,64,30.31,30.05,29.94,10,5,2,13,8,24,0.00,7,Rain-Snow,121
2013-2-23,35,32,28,31,29,22,96,86,72,29.99,29.91,29.85,9,3,0,9,4,,0.06,8,Fog-Rain,228
2013-2-24,28,26,24,23,20,18,84,74,67,30.14,30.00,29.88,10,6,0,13,6,17,0.00,8,Snow,273
2013-2-25,39,30,21,25,22,19,96,77,46,30.24,30.16,30.09,10,5,0,9,2,,0.01,3,Fog,31
2013-2-26,39,34,30,32,27,19,89,77,55,30.11,29.77,29.56,10,5,0,16,9,29,0.74,6,Fog-Rain-Snow,108
2013-2-27,39,36,32,36,32,28,96,89,81,29.65,29.57,29.52,10,4,0,14,6,17,0.20,8,Fog-Rain-Snow,214
2013-2-28,33,32,30,30,28,25,93,87,79,29.81,29.64,29.54,10,3,0,12,7,17,0.11,8,Fog-Rain-Snow,259